Livonia, Missouri
Current Conditions -  °F | °C
As of 12:10 PM on Thursday 27 Nov 2014 (Local Time) from KTVK Reporting Station
Clear Clear  
Wind Chill:   Ceiling: Unl
Heat Index: 19°   Visibility: 10mi
Dew Point: 10°   Wind: 8mph
Humidity: 68%   Direction: 270°W
Pressure: 30.51"   Gusts: NA
Location:  40.49°N, 92.7°W
Report Text: KTVK 271810Z AUTO 27007KT 10SM CLR M07/M12 A3051 RMK AO2
Loading
Personal Weather Stations






























Interactive Weather Map New forecast layout! Learn more

10-Day Weather Forecast

Advertisements
Track Severe Weather on mobile